Time;durP1;ratioP1;P1;durP2;ratioP2;P2;SDS_P1;SDS_P2;PMS_P1;PMS_P2;Temp;Humidity;BMP_temperature;BMP_pressure;BME280_temperature;BME280_humidity;BME280_pressure;Samples;Min_cycle;Max_cycle;Signal;HPM_P1;HPM_P2
2022/10/23 00:01:49;;;;;;;0.10;0.10;;;;;;;10.84;100.00;96569.19;4921290;29;20074;-74
2022/10/23 00:04:36;;;;;;;0.10;0.10;;;;;;;10.74;100.00;96565.53;4920213;29;20066;-74
2022/10/23 00:07:27;;;;;;;0.10;0.10;;;;;;;10.65;100.00;96570.50;4921701;29;20052;-74
2022/10/23 00:10:13;;;;;;;0.10;0.10;;;;;;;10.60;100.00;96562.44;4920258;29;20040;-75
2022/10/23 00:13:01;;;;;;;0.15;0.15;;;;;;;10.50;100.00;96567.59;4917582;29;20276;-75
2022/10/23 00:15:48;;;;;;;0.15;0.15;;;;;;;10.39;100.00;96563.97;4919776;29;20229;-73
2022/10/23 00:18:36;;;;;;;0.20;0.10;;;;;;;10.30;100.00;96557.44;4916793;29;20059;-74
2022/10/23 00:21:24;;;;;;;0.10;0.10;;;;;;;10.21;100.00;96559.66;4901206;29;20469;-75
2022/10/23 00:24:10;;;;;;;0.35;0.20;;;;;;;10.16;100.00;96564.94;4904511;28;20570;-74
2022/10/23 00:26:56;;;;;;;0.10;0.10;;;;;;;10.09;100.00;96560.78;4920071;29;20052;-76
2022/10/23 00:29:43;;;;;;;0.10;0.10;;;;;;;10.08;100.00;96554.63;4919483;29;20496;-74
2022/10/23 00:32:30;;;;;;;0.10;0.10;;;;;;;10.00;100.00;96544.34;4916320;29;20059;-75
2022/10/23 00:35:16;;;;;;;0.20;0.20;;;;;;;9.97;100.00;96547.50;4914887;29;20269;-74
2022/10/23 00:38:03;;;;;;;0.10;0.10;;;;;;;9.95;100.00;96561.09;4921748;29;21022;-74
2022/10/23 00:40:50;;;;;;;0.10;0.10;;;;;;;9.94;100.00;96556.81;4918645;29;20046;-74
2022/10/23 00:43:55;;;;;;;0.10;0.10;;;;;;;9.91;100.00;96559.97;4914401;29;20044;-75
2022/10/23 00:46:41;;;;;;;0.10;0.10;;;;;;;9.92;100.00;96550.09;4917267;29;20431;-75
2022/10/23 00:49:27;;;;;;;0.20;0.20;;;;;;;9.90;100.00;96545.00;4913147;29;20566;-75
2022/10/23 00:52:13;;;;;;;0.10;0.10;;;;;;;9.88;100.00;96535.56;4914840;29;20048;-75
2022/10/23 00:54:59;;;;;;;0.10;0.10;;;;;;;9.87;100.00;96532.09;4918194;29;20110;-74
2022/10/23 00:57:47;;;;;;;0.10;0.10;;;;;;;9.90;100.00;96522.81;4916265;29;20449;-75
2022/10/23 01:00:52;;;;;;;0.10;0.10;;;;;;;9.92;100.00;96524.16;4915880;29;20043;-74
2022/10/23 01:03:38;;;;;;;0.10;0.10;;;;;;;9.99;100.00;96518.66;4917311;29;20066;-75
2022/10/23 01:06:59;;;;;;;0.10;0.10;;;;;;;9.93;100.00;96524.97;4916168;29;20044;-74
2022/10/23 01:09:50;;;;;;;0.10;0.10;;;;;;;9.82;100.00;96516.00;4915727;29;20040;-75
2022/10/23 01:12:45;;;;;;;0.25;0.20;;;;;;;9.76;100.00;96519.63;4916903;29;20095;-73
2022/10/23 01:16:10;;;;;;;0.20;0.20;;;;;;;9.72;100.00;96523.81;4917772;29;20313;-75
2022/10/23 01:19:26;;;;;;;0.10;0.10;;;;;;;9.64;100.00;96533.03;4919423;29;20051;-74
2022/10/23 01:22:21;;;;;;;0.32;0.15;;;;;;;9.65;100.00;96542.69;4891953;29;20621;-74
2022/10/23 01:25:49;;;;;;;0.10;0.10;;;;;;;9.66;100.00;96546.19;4892538;28;20270;-75
2022/10/23 01:28:49;;;;;;;0.10;0.10;;;;;;;9.67;100.00;96543.25;4904182;29;20052;-74
2022/10/23 01:31:53;;;;;;;;;;;;;;;9.69;100.00;96540.34;4918596;29;20048;-74
2022/10/23 01:35:04;;;;;;;0.10;0.10;;;;;;;9.76;100.00;96538.31;4915729;29;20036;-74
2022/10/23 01:37:59;;;;;;;0.17;0.17;;;;;;;9.77;100.00;96529.25;4922930;29;20043;-76
2022/10/23 01:41:01;;;;;;;0.10;0.10;;;;;;;9.76;100.00;96519.63;4904865;29;20134;-75
2022/10/23 01:43:58;;;;;;;0.10;0.10;;;;;;;9.76;100.00;96517.75;4917872;29;20115;-75
2022/10/23 01:46:51;;;;;;;0.10;0.10;;;;;;;9.81;100.00;96508.22;4918661;29;20055;-75
2022/10/23 01:49:42;;;;;;;0.10;0.10;;;;;;;9.78;100.00;96520.19;4919558;29;20084;-75
2022/10/23 01:52:29;;;;;;;0.10;0.10;;;;;;;9.75;100.00;96518.81;4895698;29;20564;-74
2022/10/23 01:55:16;;;;;;;0.10;0.10;;;;;;;9.74;100.00;96519.88;4898475;29;20491;-74
2022/10/23 01:58:08;;;;;;;0.10;0.10;;;;;;;9.81;100.00;96521.59;4908204;29;20054;-74
2022/10/23 02:01:02;;;;;;;0.13;0.13;;;;;;;9.92;100.00;96508.13;4906077;29;20142;-75
2022/10/23 02:03:57;;;;;;;0.10;0.10;;;;;;;10.01;100.00;96512.00;4923267;29;20481;-75
2022/10/23 02:06:44;;;;;;;0.17;0.10;;;;;;;10.01;100.00;96504.00;4918496;29;20575;-76
2022/10/23 02:09:33;;;;;;;0.10;0.10;;;;;;;9.98;100.00;96498.34;4914232;29;20571;-74
2022/10/23 02:12:29;;;;;;;0.20;0.20;;;;;;;9.99;100.00;96502.63;4914580;29;20139;-75
2022/10/23 02:15:28;;;;;;;0.10;0.10;;;;;;;10.01;100.00;96495.16;4919808;29;20040;-74
2022/10/23 02:18:33;;;;;;;0.10;0.10;;;;;;;10.02;100.00;96492.25;4916618;29;20051;-75
2022/10/23 02:21:54;;;;;;;0.10;0.10;;;;;;;10.10;100.00;96485.69;4918794;29;20449;-73
2022/10/23 02:25:30;;;;;;;0.10;0.10;;;;;;;10.17;100.00;96482.84;4911865;28;20052;-73
2022/10/23 02:28:24;;;;;;;0.10;0.10;;;;;;;10.22;100.00;96474.91;4921702;29;20043;-73
2022/10/23 02:31:18;;;;;;;0.10;0.10;;;;;;;10.26;100.00;96474.19;4921302;29;20050;-75
2022/10/23 02:34:04;;;;;;;0.10;0.10;;;;;;;10.26;100.00;96460.00;4917843;29;20036;-75
2022/10/23 02:36:51;;;;;;;0.10;0.10;;;;;;;10.26;100.00;96463.47;4915532;29;20090;-74
2022/10/23 02:39:39;;;;;;;0.13;0.13;;;;;;;10.30;100.00;96464.63;4899872;29;20047;-75
2022/10/23 02:42:30;;;;;;;0.10;0.10;;;;;;;10.21;100.00;96458.06;4924585;29;20067;-73
2022/10/23 02:45:44;;;;;;;0.10;0.10;;;;;;;10.15;100.00;96460.88;4911609;29;20131;-74
2022/10/23 02:48:43;;;;;;;0.10;0.10;;;;;;;10.12;100.00;96454.19;4914462;29;21023;-74
2022/10/23 02:51:51;;;;;;;0.10;0.10;;;;;;;10.17;100.00;96454.22;4919475;29;20063;-73
2022/10/23 02:54:47;;;;;;;0.10;0.10;;;;;;;10.25;100.00;96453.84;4918947;29;20040;-74
2022/10/23 02:57:53;;;;;;;0.10;0.10;;;;;;;10.27;100.00;96451.75;4909043;29;20052;-73
2022/10/23 03:00:45;;;;;;;0.10;0.10;;;;;;;10.23;100.00;96453.28;4918715;29;20586;-74
2022/10/23 03:03:38;;;;;;;0.10;0.10;;;;;;;10.25;100.00;96445.00;4917167;29;20059;-74
2022/10/23 03:06:28;;;;;;;0.10;0.10;;;;;;;10.32;100.00;96442.97;4906514;29;20122;-74
2022/10/23 03:09:16;;;;;;;0.10;0.10;;;;;;;10.34;100.00;96435.50;4919600;29;20043;-74
2022/10/23 03:12:02;;;;;;;0.25;0.20;;;;;;;10.35;100.00;96429.13;4919885;29;20402;-74
2022/10/23 03:14:52;;;;;;;0.13;0.10;;;;;;;10.41;100.00;96419.28;4926234;29;20047;-75
2022/10/23 03:17:43;;;;;;;0.20;0.20;;;;;;;10.49;100.00;96411.63;4923779;29;20044;-75
2022/10/23 03:20:37;;;;;;;0.10;0.10;;;;;;;10.52;100.00;96426.38;4921551;29;20047;-74
2022/10/23 03:23:24;;;;;;;0.10;0.10;;;;;;;10.47;100.00;96434.34;4925816;29;20439;-76
2022/10/23 03:26:10;;;;;;;0.10;0.10;;;;;;;10.41;100.00;96429.97;4902448;28;20051;-74
2022/10/23 03:29:05;;;;;;;0.10;0.10;;;;;;;10.37;100.00;96428.88;4923152;29;20389;-72
2022/10/23 03:31:55;;;;;;;0.10;0.10;;;;;;;10.39;100.00;96422.22;4920044;29;20046;-72
2022/10/23 03:34:42;;;;;;;0.10;0.10;;;;;;;10.45;100.00;96393.66;4921921;29;20043;-73
2022/10/23 03:37:29;;;;;;;0.10;0.10;;;;;;;10.54;100.00;96402.88;4932032;29;20508;-74
2022/10/23 03:40:18;;;;;;;0.20;0.20;;;;;;;10.58;100.00;96393.28;4920298;29;20096;-73
2022/10/23 03:43:10;;;;;;;0.10;0.10;;;;;;;10.60;100.00;96385.81;4926418;28;20080;-75
2022/10/23 03:45:57;;;;;;;0.10;0.10;;;;;;;10.59;100.00;96389.56;4911802;29;20044;-73
2022/10/23 03:48:44;;;;;;;0.10;0.10;;;;;;;10.59;100.00;96397.59;4914733;29;20134;-75
2022/10/23 03:51:30;;;;;;;0.10;0.10;;;;;;;10.52;100.00;96391.63;4900419;29;20058;-75
2022/10/23 03:54:28;;;;;;;0.10;0.10;;;;;;;10.45;100.00;96404.38;4918712;29;20043;-73
2022/10/23 03:57:14;;;;;;;0.20;0.10;;;;;;;10.40;100.00;96415.78;4929428;29;20039;-74
2022/10/23 04:00:00;;;;;;;0.10;0.10;;;;;;;10.40;100.00;96425.69;4911504;29;20067;-74
2022/10/23 04:02:58;;;;;;;0.10;0.10;;;;;;;10.41;100.00;96430.78;4910652;29;20040;-73
2022/10/23 04:05:45;;;;;;;0.10;0.10;;;;;;;10.44;100.00;96424.97;4925434;29;20046;-74
2022/10/23 04:08:42;;;;;;;0.10;0.10;;;;;;;10.47;100.00;96426.31;4922709;29;20075;-73
2022/10/23 04:11:34;;;;;;;0.10;0.10;;;;;;;10.45;100.00;96412.38;4908947;29;20036;-74
2022/10/23 04:14:23;;;;;;;0.10;0.10;;;;;;;10.45;100.00;96404.38;4923895;29;20120;-74
2022/10/23 04:17:23;;;;;;;0.13;0.13;;;;;;;10.40;100.00;96397.06;4905378;29;20444;-74
2022/10/23 04:20:10;;;;;;;0.30;0.20;;;;;;;10.38;100.00;96401.06;4905634;29;20051;-76
2022/10/23 04:22:57;;;;;;;0.20;0.20;;;;;;;10.37;100.00;96399.44;4917695;29;20052;-76
2022/10/23 04:29:49;;;;;;;0.10;0.10;;;;;;;10.37;100.00;96404.78;4920767;29;20374;-75
2022/10/23 04:32:36;;;;;;;0.10;0.10;;;;;;;10.38;100.00;96385.00;4909635;29;20043;-74
2022/10/23 04:35:23;;;;;;;0.10;0.10;;;;;;;10.41;100.00;96381.84;4909577;29;20469;-75
2022/10/23 04:38:18;;;;;;;0.10;0.10;;;;;;;10.43;100.00;96385.09;4913090;29;20044;-76
2022/10/23 04:41:05;;;;;;;0.10;0.10;;;;;;;10.45;100.00;96389.13;4922989;29;20040;-76
2022/10/23 04:44:00;;;;;;;0.20;0.17;;;;;;;10.49;100.00;96389.41;4902471;29;20048;-74
2022/10/23 04:46:47;;;;;;;0.10;0.10;;;;;;;10.53;100.00;96385.19;4921647;29;20047;-74
2022/10/23 04:49:36;;;;;;;0.10;0.10;;;;;;;10.55;100.00;96380.41;4908435;29;20114;-75
2022/10/23 04:53:01;;;;;;;0.10;0.10;;;;;;;10.58;100.00;96385.25;4869444;29;20068;-75
2022/10/23 04:56:06;;;;;;;0.10;0.10;;;;;;;10.56;100.00;96382.81;4861809;29;20061;-75
2022/10/23 04:59:05;;;;;;;0.17;0.17;;;;;;;10.54;100.00;96382.28;4911476;29;20043;-75
2022/10/23 05:02:01;;;;;;;0.10;0.10;;;;;;;10.53;100.00;96377.16;4903938;29;20131;-75
2022/10/23 05:04:50;;;;;;;0.10;0.10;;;;;;;10.52;100.00;96368.34;4924714;29;20095;-74
2022/10/23 05:07:54;;;;;;;0.15;0.13;;;;;;;10.49;100.00;96365.34;4920018;29;20458;-75
2022/10/23 05:11:09;;;;;;;;;;;;;;;10.48;100.00;96371.75;4926707;29;20052;-74
2022/10/23 05:14:09;;;;;;;0.10;0.10;;;;;;;10.49;100.00;96373.38;4925878;29;20355;-74
2022/10/23 05:17:17;;;;;;;0.10;0.10;;;;;;;10.48;100.00;96361.84;4917899;29;20400;-74
2022/10/23 05:20:08;;;;;;;0.10;0.10;;;;;;;10.49;100.00;96355.44;4900648;29;20062;-75
2022/10/23 05:22:57;;;;;;;0.10;0.10;;;;;;;10.48;100.00;96345.81;4918738;29;20447;-74
2022/10/23 05:25:44;;;;;;;0.10;0.10;;;;;;;10.48;100.00;96345.81;4919639;29;20142;-76
2022/10/23 05:28:36;;;;;;;0.10;0.10;;;;;;;10.48;100.00;96334.31;4909626;29;20374;-74
2022/10/23 05:31:24;;;;;;;0.10;0.10;;;;;;;10.47;100.00;96341.53;4919430;29;20458;-76
2022/10/23 05:34:12;;;;;;;0.10;0.10;;;;;;;10.45;100.00;96340.16;4910046;29;20081;-76
2022/10/23 05:37:05;;;;;;;0.10;0.10;;;;;;;10.41;100.00;96339.03;4921216;29;20102;-75
2022/10/23 05:39:58;;;;;;;0.10;0.10;;;;;;;10.43;100.00;96331.59;4916389;29;20556;-75
2022/10/23 05:42:46;;;;;;;0.20;0.20;;;;;;;10.39;100.00;96335.81;4916114;29;20320;-75
2022/10/23 05:45:35;;;;;;;0.10;0.10;;;;;;;10.36;100.00;96345.16;4909772;29;20044;-75
2022/10/23 05:48:39;;;;;;;0.20;0.15;;;;;;;10.31;100.00;96351.22;4916177;29;20036;-77
2022/10/23 05:51:43;;;;;;;0.20;0.10;;;;;;;10.27;100.00;96350.13;4919471;29;20151;-75
2022/10/23 05:54:50;;;;;;;0.10;0.10;;;;;;;10.20;100.00;96341.44;4924767;29;20082;-74
2022/10/23 05:58:14;;;;;;;0.10;0.10;;;;;;;10.23;100.00;96350.84;4884143;29;20044;-75
2022/10/23 06:01:22;;;;;;;0.10;0.10;;;;;;;10.19;100.00;96345.16;4883250;29;21065;-76
2022/10/23 06:04:24;;;;;;;0.10;0.10;;;;;;;10.12;100.00;96338.41;4921940;29;20066;-75
2022/10/23 06:07:39;;;;;;;0.10;0.10;;;;;;;10.12;100.00;96330.38;4919545;29;20036;-75
2022/10/23 06:10:32;;;;;;;0.20;0.20;;;;;;;10.08;100.00;96330.06;4921536;28;20060;-74
2022/10/23 06:13:22;;;;;;;0.10;0.10;;;;;;;10.08;100.00;96331.91;4922756;29;20087;-75
2022/10/23 06:16:20;;;;;;;0.10;0.10;;;;;;;10.12;100.00;96325.84;4926286;29;20581;-74
2022/10/23 06:19:11;;;;;;;0.10;0.10;;;;;;;10.18;100.00;96313.31;4905088;29;20519;-75
2022/10/23 06:21:59;;;;;;;0.10;0.10;;;;;;;10.23;100.00;96310.75;4924233;28;20040;-74
2022/10/23 06:25:02;;;;;;;0.10;0.10;;;;;;;10.28;100.00;96314.31;4903350;29;20063;-75
2022/10/23 06:27:53;;;;;;;0.10;0.10;;;;;;;10.33;100.00;96322.38;4918825;28;20448;-74
2022/10/23 06:30:39;;;;;;;0.10;0.10;;;;;;;10.30;100.00;96306.81;4921526;29;20048;-75
2022/10/23 06:33:30;;;;;;;0.10;0.10;;;;;;;10.35;100.00;96305.25;4908709;29;20062;-75
2022/10/23 06:36:17;;;;;;;0.10;0.10;;;;;;;10.39;100.00;96306.38;4911948;29;20069;-75
2022/10/23 06:39:05;;;;;;;0.10;0.10;;;;;;;10.45;100.00;96302.72;4924656;29;20058;-74
2022/10/23 06:42:19;;;;;;;0.13;0.13;;;;;;;10.51;100.00;96301.72;4921502;29;20139;-74
2022/10/23 06:45:28;;;;;;;0.10;0.10;;;;;;;10.56;100.00;96304.41;4925017;29;20114;-75
2022/10/23 06:48:33;;;;;;;0.10;0.10;;;;;;;10.63;100.00;96313.06;4924758;29;20059;-75
2022/10/23 06:51:23;;;;;;;0.10;0.10;;;;;;;10.66;100.00;96315.25;4923073;29;20520;-74
2022/10/23 06:54:10;;;;;;;0.20;0.20;;;;;;;10.67;100.00;96308.84;4915553;29;20070;-77
2022/10/23 06:57:14;;;;;;;0.10;0.10;;;;;;;10.70;100.00;96307.50;4917704;29;20067;-77
2022/10/23 07:00:05;;;;;;;0.10;0.10;;;;;;;10.71;100.00;96307.25;4223736;29;10000555;-75
2022/10/23 07:03:00;;;;;;;0.10;0.10;;;;;;;10.71;100.00;96299.22;4893101;29;20040;-75
2022/10/23 07:05:46;;;;;;;0.10;0.10;;;;;;;10.71;100.00;96309.94;4911574;29;20052;-73
2022/10/23 07:08:34;;;;;;;0.10;0.10;;;;;;;10.74;100.00;96305.94;4912477;29;20052;-73
2022/10/23 07:11:22;;;;;;;0.10;0.10;;;;;;;10.79;100.00;96309.47;4913705;29;20168;-72
2022/10/23 07:14:08;;;;;;;0.10;0.10;;;;;;;10.85;100.00;96303.13;4913962;29;20093;-75
2022/10/23 07:16:54;;;;;;;0.10;0.10;;;;;;;10.91;100.00;96311.19;4912871;29;20051;-76
2022/10/23 07:19:41;;;;;;;0.10;0.10;;;;;;;10.95;100.00;96310.44;4902382;29;20048;-75
2022/10/23 07:22:30;;;;;;;0.10;0.10;;;;;;;11.02;100.00;96303.00;4911522;28;20052;-76
2022/10/23 07:25:26;;;;;;;0.10;0.10;;;;;;;11.06;100.00;96292.59;4915624;29;20505;-75
2022/10/23 07:28:12;;;;;;;0.10;0.10;;;;;;;11.11;100.00;96290.75;4903675;29;20043;-76
2022/10/23 07:30:58;;;;;;;0.10;0.10;;;;;;;11.19;100.00;96299.38;4903603;28;20066;-77
2022/10/23 07:33:52;;;;;;;0.10;0.10;;;;;;;11.19;100.00;96300.19;4907041;29;20055;-75
2022/10/23 07:36:40;;;;;;;0.20;0.20;;;;;;;11.27;100.00;96297.03;4913656;29;20048;-77
2022/10/23 07:39:26;;;;;;;0.10;0.10;;;;;;;11.36;100.00;96286.66;4899109;29;20048;-76
2022/10/23 07:42:11;;;;;;;0.10;0.10;;;;;;;11.48;100.00;96299.88;4900666;29;20047;-75
2022/10/23 07:45:00;;;;;;;0.10;0.10;;;;;;;11.51;100.00;96292.09;4916213;29;20098;-76
2022/10/23 07:47:51;;;;;;;0.10;0.10;;;;;;;11.59;100.00;96296.19;4913528;29;20279;-74
2022/10/23 07:50:37;;;;;;;0.10;0.10;;;;;;;11.67;100.00;96298.38;4904143;28;20035;-75
2022/10/23 07:53:24;;;;;;;0.10;0.10;;;;;;;11.72;100.00;96295.72;4898749;29;20287;-77
2022/10/23 07:56:15;;;;;;;0.10;0.10;;;;;;;11.78;100.00;96283.97;4890627;29;20496;-76
2022/10/23 07:59:33;;;;;;;0.13;0.13;;;;;;;11.84;100.00;96292.91;4916037;29;20056;-74
2022/10/23 08:02:23;;;;;;;0.10;0.10;;;;;;;11.89;100.00;96295.59;4914107;29;20147;-76
2022/10/23 08:05:09;;;;;;;0.15;0.15;;;;;;;11.91;100.00;96286.22;4905805;29;20071;-75
2022/10/23 08:08:10;;;;;;;0.10;0.10;;;;;;;12.00;100.00;96289.22;4898774;29;20083;-75
2022/10/23 08:10:58;;;;;;;0.10;0.10;;;;;;;12.07;100.00;96281.75;4916444;29;20062;-75
2022/10/23 08:13:53;;;;;;;0.10;0.10;;;;;;;12.21;100.00;96282.03;4913073;29;20091;-77
2022/10/23 08:16:40;;;;;;;0.20;0.20;;;;;;;12.31;100.00;96284.78;4914698;29;20035;-75
2022/10/23 08:19:28;;;;;;;0.10;0.10;;;;;;;12.38;100.00;96288.03;4903010;29;20055;-76
2022/10/23 08:22:15;;;;;;;0.20;0.20;;;;;;;12.46;100.00;96284.03;4915474;29;20137;-77
2022/10/23 08:25:02;;;;;;;0.10;0.10;;;;;;;12.59;100.00;96280.81;4892848;29;20345;-74
2022/10/23 08:27:48;;;;;;;0.10;0.10;;;;;;;12.64;100.00;96274.66;4915603;29;20133;-75
2022/10/23 08:30:36;;;;;;;0.32;0.20;;;;;;;12.71;100.00;96292.13;4915059;29;20052;-74
2022/10/23 08:33:22;;;;;;;0.17;0.17;;;;;;;12.85;100.00;96273.63;4914764;29;20043;-77
2022/10/23 08:36:26;;;;;;;0.10;0.10;;;;;;;13.01;100.00;96269.06;4914137;29;20141;-76
2022/10/23 08:39:12;;;;;;;0.10;0.10;;;;;;;13.24;100.00;96267.75;4913303;29;20504;-74
2022/10/23 08:42:18;;;;;;;0.10;0.10;;;;;;;13.50;100.00;96276.59;4902488;29;20536;-75
2022/10/23 08:45:19;;;;;;;0.10;0.10;;;;;;;13.67;100.00;96277.09;4911579;29;20492;-75
2022/10/23 08:48:31;;;;;;;0.10;0.10;;;;;;;13.88;100.00;96272.50;4913600;29;20044;-75
2022/10/23 08:51:43;;;;;;;0.10;0.10;;;;;;;13.73;100.00;96275.22;4916109;29;20102;-73
2022/10/23 08:54:58;;;;;;;0.10;0.10;;;;;;;13.73;100.00;96267.16;4912772;29;20082;-75
2022/10/23 08:57:54;;;;;;;0.10;0.10;;;;;;;13.73;100.00;96256.41;4914133;29;20562;-74
2022/10/23 09:00:45;;;;;;;0.20;0.20;;;;;;;13.95;100.00;96256.88;4912940;29;20051;-72
2022/10/23 09:03:31;;;;;;;0.10;0.10;;;;;;;13.96;100.00;96258.47;4910565;29;20550;-75
2022/10/23 09:06:36;;;;;;;0.10;0.10;;;;;;;14.03;100.00;96248.22;4914353;29;20086;-74
2022/10/23 09:09:40;;;;;;;0.10;0.10;;;;;;;14.17;100.00;96226.91;4914358;29;20047;-74
2022/10/23 09:12:29;;;;;;;0.20;0.20;;;;;;;14.57;100.00;96246.66;4911421;29;21625;-76
2022/10/23 09:15:27;;;;;;;0.15;0.15;;;;;;;14.93;100.00;96231.03;4914164;29;20099;-74
2022/10/23 09:18:15;;;;;;;0.10;0.10;;;;;;;15.40;100.00;96234.94;4911032;29;20735;-76
2022/10/23 09:21:01;;;;;;;0.10;0.10;;;;;;;15.05;100.00;96237.69;4912926;29;20460;-75
2022/10/23 09:23:47;;;;;;;0.13;0.10;;;;;;;14.76;100.00;96240.31;4901872;29;20444;-74
2022/10/23 09:26:33;;;;;;;0.15;0.10;;;;;;;14.62;100.00;96249.28;4915150;29;20118;-74
2022/10/23 09:29:31;;;;;;;0.10;0.10;;;;;;;14.42;100.00;96244.81;4911530;29;20040;-75
2022/10/23 09:32:18;;;;;;;0.10;0.10;;;;;;;14.28;100.00;96249.19;4912300;28;20074;-73
2022/10/23 09:35:05;;;;;;;0.22;0.15;;;;;;;14.47;100.00;96242.94;4896989;28;20516;-73
2022/10/23 09:37:54;;;;;;;0.10;0.10;;;;;;;14.91;100.00;96241.28;4912817;29;20086;-75
2022/10/23 09:40:42;;;;;;;0.10;0.10;;;;;;;14.91;100.00;96235.91;4911977;29;20261;-74
2022/10/23 09:43:28;;;;;;;0.10;0.10;;;;;;;14.98;100.00;96220.22;4913481;29;20059;-76
2022/10/23 09:46:20;;;;;;;0.17;0.15;;;;;;;15.03;100.00;96212.13;4913814;29;20055;-74
2022/10/23 09:49:15;;;;;;;0.10;0.10;;;;;;;15.05;100.00;96218.00;4914448;29;20039;-75
2022/10/23 09:52:08;;;;;;;0.10;0.10;;;;;;;14.85;100.00;96228.94;4913858;28;20355;-75
2022/10/23 09:54:57;;;;;;;0.10;0.10;;;;;;;14.39;100.00;96229.19;4911515;29;20467;-74
2022/10/23 09:57:43;;;;;;;0.10;0.10;;;;;;;14.43;100.00;96235.66;4898460;29;20058;-74
2022/10/23 10:00:29;;;;;;;0.10;0.10;;;;;;;14.48;100.00;96235.66;4913637;29;20051;-76
2022/10/23 10:03:20;;;;;;;0.10;0.10;;;;;;;14.98;100.00;96226.41;4912147;29;20054;-73
2022/10/23 10:06:30;;;;;;;0.20;0.20;;;;;;;14.86;100.00;96223.25;4908317;29;20044;-76
2022/10/23 10:09:17;;;;;;;0.25;0.20;;;;;;;14.51;100.00;96226.22;4910116;29;20054;-74
2022/10/23 10:12:23;;;;;;;0.10;0.10;;;;;;;14.41;100.00;96222.47;4912592;29;20456;-74
2022/10/23 10:15:36;;;;;;;0.10;0.10;;;;;;;14.16;100.00;96219.91;4912367;29;20536;-74
2022/10/23 10:18:38;;;;;;;0.10;0.10;;;;;;;14.14;100.00;96201.34;4908963;29;20383;-76
2022/10/23 10:21:27;;;;;;;0.10;0.10;;;;;;;14.34;100.00;96211.22;4913761;29;20044;-76
2022/10/23 10:24:24;;;;;;;0.10;0.10;;;;;;;14.39;100.00;96213.06;4911555;29;20254;-76
2022/10/23 10:27:17;;;;;;;0.10;0.10;;;;;;;14.27;100.00;96223.38;4913693;29;20072;-73
2022/10/23 10:30:17;;;;;;;0.10;0.10;;;;;;;13.88;100.00;96213.31;4913151;29;20346;-75
2022/10/23 10:33:14;;;;;;;0.20;0.20;;;;;;;13.90;100.00;96211.16;4910607;29;20126;-74
2022/10/23 10:36:38;;;;;;;0.20;0.17;;;;;;;13.72;100.00;96209.06;4909300;29;20099;-73
2022/10/23 10:39:33;;;;;;;0.10;0.10;;;;;;;13.57;100.00;96199.16;4891693;29;20039;-76
2022/10/23 10:42:40;;;;;;;0.10;0.10;;;;;;;13.51;100.00;96198.38;4906935;29;20400;-75
2022/10/23 10:45:36;;;;;;;0.10;0.10;;;;;;;13.55;100.00;96202.13;4910715;29;20043;-76
2022/10/23 10:48:39;;;;;;;0.10;0.10;;;;;;;13.51;100.00;96192.19;4974618;23;20051;-90
2022/10/23 10:52:05;;;;;;;0.17;0.10;;;;;;;13.65;100.00;96198.59;4953110;28;20034;-91
2022/10/23 10:57:40;;;;;;;0.10;0.10;;;;;;;13.65;100.00;96207.47;5182244;23;20071;-78
2022/10/23 11:00:29;;;;;;;0.10;0.10;;;;;;;13.61;100.00;96195.66;4907750;29;20143;-78
2022/10/23 11:03:38;;;;;;;0.10;0.10;;;;;;;13.47;100.00;96191.16;4912082;29;20052;-78
2022/10/23 11:06:12;;;;;;;0.10;0.10;;;;;;;13.48;100.00;96180.13;4985736;23;20514;-72
2022/10/23 11:09:06;;;;;;;0.10;0.10;;;;;;;13.51;100.00;96160.75;4952394;28;20097;-74
2022/10/23 11:11:51;;;;;;;0.10;0.10;;;;;;;13.34;100.00;96166.44;4952573;28;20043;-75
2022/10/23 11:14:41;;;;;;;0.10;0.10;;;;;;;13.35;100.00;96162.66;4956625;28;20131;-76
2022/10/23 11:17:36;;;;;;;0.10;0.10;;;;;;;13.31;100.00;96144.69;4953909;28;20967;-76
2022/10/23 11:20:35;;;;;;;0.10;0.10;;;;;;;13.33;100.00;96140.66;4947820;28;20471;-74
2022/10/23 11:23:46;;;;;;;0.10;0.10;;;;;;;13.29;100.00;96144.13;4950081;28;20035;-76
2022/10/23 11:26:46;;;;;;;0.10;0.10;;;;;;;13.30;100.00;96143.84;4953658;28;20046;-75
2022/10/23 11:29:43;;;;;;;0.15;0.15;;;;;;;13.31;100.00;96133.94;4614191;28;10000439;-76
2022/10/23 11:32:34;;;;;;;0.10;0.10;;;;;;;13.21;100.00;96125.88;4612209;28;10000249;-74
2022/10/23 11:35:29;;;;;;;0.10;0.10;;;;;;;13.27;100.00;96127.50;4954047;28;20043;-73
2022/10/23 11:38:18;;;;;;;0.20;0.20;;;;;;;13.29;100.00;96109.22;4953809;28;20207;-76
2022/10/23 11:41:17;;;;;;;0.10;0.10;;;;;;;13.38;100.00;96103.03;4954658;28;20657;-74
2022/10/23 11:44:24;;;;;;;0.43;0.20;;;;;;;13.72;100.00;96112.28;4954224;28;20315;-74
2022/10/23 11:47:32;;;;;;;0.10;0.10;;;;;;;14.00;100.00;96113.44;4951828;28;20520;-75
2022/10/23 11:50:27;;;;;;;0.30;0.20;;;;;;;14.44;100.00;96118.81;4955129;28;20466;-75
2022/10/23 11:53:25;;;;;;;0.17;0.17;;;;;;;15.53;100.00;96121.84;4947844;28;20046;-75
2022/10/23 11:56:11;;;;;;;0.20;0.20;;;;;;;16.50;100.00;96123.25;4954562;28;20503;-76
2022/10/23 11:58:59;;;;;;;0.10;0.10;;;;;;;16.92;100.00;96116.91;4952982;28;20077;-74
2022/10/23 12:01:47;;;;;;;0.10;0.10;;;;;;;16.47;100.00;96115.72;4954107;28;20047;-74
2022/10/23 12:04:54;;;;;;;0.10;0.10;;;;;;;15.80;100.00;96128.56;4938789;28;20138;-75
2022/10/23 12:07:40;;;;;;;0.10;0.10;;;;;;;15.53;100.00;96115.63;4956728;28;20138;-75
2022/10/23 12:10:33;;;;;;;0.13;0.13;;;;;;;15.40;100.00;96111.72;4953191;28;20045;-74
2022/10/23 12:13:44;;;;;;;0.10;0.10;;;;;;;15.51;100.00;96094.34;4951707;28;20078;-75
2022/10/23 12:16:34;;;;;;;0.10;0.10;;;;;;;15.41;100.00;96086.41;4954808;28;20052;-76
2022/10/23 12:19:23;;;;;;;0.10;0.10;;;;;;;15.65;100.00;96078.31;4951618;28;20038;-76
2022/10/23 12:22:10;;;;;;;0.10;0.10;;;;;;;15.92;100.00;96077.66;4955259;28;20057;-74
2022/10/23 12:25:07;;;;;;;0.10;0.10;;;;;;;15.71;100.00;96082.53;4952296;28;20122;-75
2022/10/23 12:28:14;;;;;;;0.10;0.10;;;;;;;15.79;100.00;96076.47;4953048;28;20145;-77
2022/10/23 12:31:27;;;;;;;0.10;0.10;;;;;;;15.90;100.00;96079.06;4955290;28;20498;-77
2022/10/23 12:34:37;;;;;;;0.10;0.10;;;;;;;16.04;100.00;96078.03;4954962;28;20105;-75
2022/10/23 12:37:53;;;;;;;0.20;0.20;;;;;;;16.33;100.00;96071.66;4953524;28;20587;-74
2022/10/23 12:40:43;;;;;;;0.20;0.20;;;;;;;17.81;100.00;96059.75;4942700;28;20922;-77
2022/10/23 12:43:32;;;;;;;0.15;0.15;;;;;;;18.10;100.00;96042.34;4951837;28;20133;-77
2022/10/23 12:46:29;;;;;;;0.20;0.20;;;;;;;18.30;100.00;96049.19;4954564;28;20070;-76
2022/10/23 12:49:22;;;;;;;0.10;0.10;;;;;;;18.52;100.00;96043.78;4951080;28;20045;-76
2022/10/23 12:52:23;;;;;;;0.25;0.20;;;;;;;18.08;100.00;96029.13;4954988;28;20323;-75
2022/10/23 12:55:13;;;;;;;0.20;0.20;;;;;;;18.22;100.00;96022.84;4956293;28;20054;-77
2022/10/23 12:57:59;;;;;;;0.10;0.10;;;;;;;19.03;100.00;96018.06;4957943;28;20682;-75
2022/10/23 13:00:54;;;;;;;0.10;0.10;;;;;;;18.43;100.00;96017.72;4952379;28;20130;-76
2022/10/23 13:03:42;;;;;;;0.10;0.10;;;;;;;18.84;100.00;96009.41;4951806;28;20341;-77
2022/10/23 13:06:28;;;;;;;0.17;0.17;;;;;;;19.04;100.00;96010.75;4955847;28;20065;-75
2022/10/23 13:09:23;;;;;;;0.13;0.13;;;;;;;19.52;100.00;96005.28;4951886;28;20078;-75
2022/10/23 13:12:33;;;;;;;0.10;0.10;;;;;;;18.45;100.00;96010.09;4941650;28;20042;-77
2022/10/23 13:15:20;;;;;;;0.10;0.10;;;;;;;18.24;100.00;96007.09;4954070;28;20051;-75
2022/10/23 13:18:08;;;;;;;0.10;0.10;;;;;;;17.45;100.00;96011.00;4928366;28;20046;-76
2022/10/23 13:20:57;;;;;;;0.10;0.10;;;;;;;16.93;100.00;96001.50;4933635;28;20151;-75
2022/10/23 13:23:44;;;;;;;0.10;0.10;;;;;;;16.43;100.00;96012.91;4953748;28;20051;-77
2022/10/23 13:26:46;;;;;;;0.05;0.05;;;;;;;16.36;100.00;96000.91;4954966;28;20529;-76
2022/10/23 13:29:35;;;;;;;0.20;0.20;;;;;;;16.20;100.00;95997.66;4952802;28;20081;-76
2022/10/23 13:32:29;;;;;;;0.10;0.10;;;;;;;16.05;100.00;95996.00;4950113;28;20046;-76
2022/10/23 13:35:22;;;;;;;0.10;0.10;;;;;;;15.94;100.00;96002.63;4933040;28;20133;-74
2022/10/23 13:38:09;;;;;;;0.10;0.10;;;;;;;15.99;100.00;95990.97;4939096;28;20433;-76
2022/10/23 13:40:58;;;;;;;0.10;0.10;;;;;;;15.91;100.00;95991.63;4958376;28;20047;-74